Time;durP1;ratioP1;P1;durP2;ratioP2;P2;SDS_P1;SDS_P2;PMS_P1;PMS_P2;Temp;Humidity;BMP_temperature;BMP_pressure;BME280_temperature;BME280_humidity;BME280_pressure;Samples;Min_cycle;Max_cycle;Signal;HPM_P1;HPM_P2
2021/12/11 00:00:36;;;;;;;;;;;;;;;;;;4164430;28;7162;-51
2021/12/11 00:02:59;;;;;;;;;;;;;;;;;;4164283;28;7063;-51
2021/12/11 00:05:20;;;;;;;;;;;;;;;;;;4164617;28;7164;-52
2021/12/11 00:07:41;;;;;;;;;;;;;;;;;;4163014;28;7225;-51
2021/12/11 00:10:06;;;;;;;;;;;;;;;;;;4148027;28;7049;-51
2021/12/11 00:12:28;;;;;;;;;;;;;;;;;;4147798;28;7006;-51
2021/12/11 00:14:53;;;;;;;;;;;;;;;;;;4147527;28;6990;-51
2021/12/11 00:17:19;;;;;;;;;;;;;;;;;;4147622;28;7179;-52
2021/12/11 00:19:40;;;;;;;;;;;;;;;;;;4154263;28;7171;-52
2021/12/11 00:22:05;;;;;;;;;;;;;;;;;;4162207;28;7183;-51
2021/12/11 00:24:29;;;;;;;;;;;;;;;;;;4162981;28;6994;-51
2021/12/11 00:26:52;;;;;;;;;;;;;;;;;;4163490;28;7014;-51
2021/12/11 00:29:14;;;;;;;;;;;;;;;;;;4176419;28;7041;-51
2021/12/11 00:31:37;;;;;;;;;;;;;;;;;;4163760;28;7049;-51
2021/12/11 00:33:58;;;;;;;;;;;;;;;;;;4162272;28;7030;-51
2021/12/11 00:36:21;;;;;;;;;;;;;;;;;;4165324;28;6990;-53
2021/12/11 00:38:42;;;;;;;;;;;;;;;;;;4167078;28;7006;-51
2021/12/11 00:41:07;;;;;;;;;;;;;;;;;;4165555;28;7185;-51
2021/12/11 00:43:30;;;;;;;;;;;;;;;;;;4166829;28;7002;-51
2021/12/11 00:45:51;;;;;;;;;;;;;;;;;;4167362;28;7274;-51
2021/12/11 00:48:14;;;;;;;;;;;;;;;;;;4167531;28;7005;-51
2021/12/11 00:50:36;;;;;;;;;;;;;;;;;;4167250;28;6989;-51
2021/12/11 00:52:59;;;;;;;;;;;;;;;;;;4167671;28;7391;-52
2021/12/11 00:55:20;;;;;;;;;;;;;;;;;;4167590;28;6997;-51
2021/12/11 00:57:42;;;;;;;;;;;;;;;;;;4167174;28;7021;-51
2021/12/11 01:00:07;;;;;;;;;;;;;;;;;;4166637;28;7088;-51
2021/12/11 01:02:29;;;;;;;;;;;;;;;;;;4166937;28;7059;-51
2021/12/11 01:04:52;;;;;;;;;;;;;;;;;;4164725;28;7067;-51
2021/12/11 01:07:18;;;;;;;;;;;;;;;;;;4166711;28;7002;-51
2021/12/11 01:09:41;;;;;;;;;;;;;;;;;;4167067;28;7172;-51
2021/12/11 01:12:06;;;;;;;;;;;;;;;;;;4166522;28;7072;-51
2021/12/11 01:14:34;;;;;;;;;;;;;;;;;;4164545;28;7002;-51
2021/12/11 01:16:59;;;;;;;;;;;;;;;;;;4166630;28;7012;-52
2021/12/11 01:19:22;;;;;;;;;;;;;;;;;;4165767;28;7018;-51
2021/12/11 01:21:55;;;;;;;;;;;;;;;;;;4164694;28;7230;-52
2021/12/11 01:24:28;;;;;;;;;;;;;;;;;;4165252;28;7010;-51
2021/12/11 01:26:51;;;;;;;;;;;;;;;;;;4164867;28;6995;-51
2021/12/11 01:29:12;;;;;;;;;;;;;;;;;;4166719;28;6986;-51
2021/12/11 01:31:34;;;;;;;;;;;;;;;;;;4166741;28;7013;-52
2021/12/11 01:33:55;;;;;;;;;;;;;;;;;;4167038;28;7047;-52
2021/12/11 01:36:16;;;;;;;;;;;;;;;;;;4166899;28;7081;-51
2021/12/11 01:38:39;;;;;;;;;;;;;;;;;;4166773;28;7010;-51
2021/12/11 01:41:01;;;;;;;;;;;;;;;;;;4166655;28;7053;-51
2021/12/11 01:43:22;;;;;;;;;;;;;;;;;;4166627;28;7415;-51
2021/12/11 01:45:44;;;;;;;;;;;;;;;;;;4166523;28;7053;-51
2021/12/11 01:48:05;;;;;;;;;;;;;;;;;;4166446;28;7450;-51
2021/12/11 01:50:28;;;;;;;;;;;;;;;;;;4166308;28;7403;-51
2021/12/11 01:52:50;;;;;;;;;;;;;;;;;;4166338;28;7027;-51
2021/12/11 01:55:18;;;;;;;;;;;;;;;;;;4166461;28;6998;-51
2021/12/11 01:57:40;;;;;;;;;;;;;;;;;;4165924;28;7693;-51
2021/12/11 02:03:47;;;;;;;;;;;;;;;;;;4130062;28;7224;-51
2021/12/11 02:06:08;;;;;;;;;;;;;;;;;;4131082;28;7007;-52
2021/12/11 02:08:30;;;;;;;;;;;;;;;;;;4130994;28;6983;-51
2021/12/11 02:10:54;;;;;;;;;;;;;;;;;;4130863;28;7121;-51
2021/12/11 02:13:18;;;;;;;;;;;;;;;;;;4131244;28;6986;-51
2021/12/11 02:15:46;;;;;;;;;;;;;;;;;;4131184;28;7007;-51
2021/12/11 02:18:11;;;;;;;;;;;;;;;;;;4131135;28;7085;-51
2021/12/11 02:20:34;;;;;;;;;;;;;;;;;;4142058;28;7026;-51
2021/12/11 02:22:57;;;;;;;;;;;;;;;;;;4166264;28;7689;-52
2021/12/11 02:25:19;;;;;;;;;;;;;;;;;;4165951;28;7096;-51
2021/12/11 02:27:41;;;;;;;;;;;;;;;;;;4165934;28;7093;-51
2021/12/11 02:30:06;;;;;;;;;;;;;;;;;;4166004;28;7053;-51
2021/12/11 02:32:32;;;;;;;;;;;;;;;;;;4165767;28;7152;-51
2021/12/11 02:34:54;;;;;;;;;;;;;;;;;;4165903;28;7104;-51
2021/12/11 02:37:16;;;;;;;;;;;;;;;;;;4165849;28;7042;-51
2021/12/11 02:39:40;;;;;;;;;;;;;;;;;;4165747;28;7019;-52
2021/12/11 02:42:02;;;;;;;;;;;;;;;;;;4165724;28;7012;-51
2021/12/11 02:44:24;;;;;;;;;;;;;;;;;;4165462;28;7059;-51
2021/12/11 02:46:46;;;;;;;;;;;;;;;;;;4165641;28;7088;-51
2021/12/11 02:49:09;;;;;;;;;;;;;;;;;;4165692;28;7407;-51
2021/12/11 02:51:31;;;;;;;;;;;;;;;;;;4165528;28;7007;-51
2021/12/11 02:53:53;;;;;;;;;;;;;;;;;;4165624;28;7006;-52
2021/12/11 02:56:16;;;;;;;;;;;;;;;;;;4165064;28;7165;-52
2021/12/11 02:58:40;;;;;;;;;;;;;;;;;;4165309;28;7107;-51
2021/12/11 03:01:02;;;;;;;;;;;;;;;;;;4165124;28;7078;-51
2021/12/11 03:03:25;;;;;;;;;;;;;;;;;;4165610;28;7383;-52
2021/12/11 03:05:55;;;;;;;;;;;;;;;;;;4165120;28;7026;-51
2021/12/11 03:08:17;;;;;;;;;;;;;;;;;;4165159;28;7010;-52
2021/12/11 03:10:38;;;;;;;;;;;;;;;;;;4150172;28;7141;-51
2021/12/11 03:13:01;;;;;;;;;;;;;;;;;;4165127;28;7085;-51
2021/12/11 03:15:23;;;;;;;;;;;;;;;;;;4165087;28;6994;-51
2021/12/11 03:17:44;;;;;;;;;;;;;;;;;;4165176;28;7069;-52
2021/12/11 03:20:06;;;;;;;;;;;;;;;;;;4164758;28;7037;-51
2021/12/11 03:22:30;;;;;;;;;;;;;;;;;;4165173;28;7029;-51
2021/12/11 03:24:51;;;;;;;;;;;;;;;;;;4165066;28;6994;-51
2021/12/11 03:27:12;;;;;;;;;;;;;;;;;;4165259;28;7010;-51
2021/12/11 03:29:35;;;;;;;;;;;;;;;;;;4164843;28;7049;-51
2021/12/11 03:31:56;;;;;;;;;;;;;;;;;;4164880;28;7011;-51
2021/12/11 03:34:19;;;;;;;;;;;;;;;;;;4165004;28;7003;-52
2021/12/11 03:36:40;;;;;;;;;;;;;;;;;;4164710;28;6986;-51
2021/12/11 03:39:03;;;;;;;;;;;;;;;;;;4164795;28;7065;-51
2021/12/11 03:41:25;;;;;;;;;;;;;;;;;;4164773;28;7037;-52
2021/12/11 03:43:46;;;;;;;;;;;;;;;;;;4164686;28;7477;-51
2021/12/11 03:46:09;;;;;;;;;;;;;;;;;;4164691;28;7053;-51
2021/12/11 03:48:31;;;;;;;;;;;;;;;;;;4164524;28;7447;-51
2021/12/11 03:50:52;;;;;;;;;;;;;;;;;;4164300;28;7356;-51
2021/12/11 03:53:14;;;;;;;;;;;;;;;;;;4164708;28;7256;-51
2021/12/11 03:55:35;;;;;;;;;;;;;;;;;;4164568;28;7043;-51
2021/12/11 03:57:59;;;;;;;;;;;;;;;;;;4164339;28;7240;-51
2021/12/11 04:00:23;;;;;;;;;;;;;;;;;;4164340;28;7160;-51
2021/12/11 04:02:46;;;;;;;;;;;;;;;;;;4164721;28;7415;-51
2021/12/11 04:05:08;;;;;;;;;;;;;;;;;;4164279;28;7155;-51
2021/12/11 04:07:30;;;;;;;;;;;;;;;;;;4164427;28;7010;-51
2021/12/11 04:09:51;;;;;;;;;;;;;;;;;;4164409;28;7069;-51
2021/12/11 04:12:13;;;;;;;;;;;;;;;;;;4164127;28;7148;-52
2021/12/11 04:14:35;;;;;;;;;;;;;;;;;;4164426;28;6986;-51
2021/12/11 04:16:56;;;;;;;;;;;;;;;;;;4164272;28;7256;-51
2021/12/11 04:19:19;;;;;;;;;;;;;;;;;;4164420;28;7483;-51
2021/12/11 04:21:40;;;;;;;;;;;;;;;;;;4164278;28;7015;-51
2021/12/11 04:24:01;;;;;;;;;;;;;;;;;;4164395;28;7038;-51
2021/12/11 04:26:23;;;;;;;;;;;;;;;;;;4164274;28;7097;-51
2021/12/11 04:28:46;;;;;;;;;;;;;;;;;;4164242;28;7002;-51
2021/12/11 04:31:08;;;;;;;;;;;;;;;;;;4164296;28;7002;-51
2021/12/11 04:33:30;;;;;;;;;;;;;;;;;;4164476;28;6970;-51
2021/12/11 04:35:52;;;;;;;;;;;;;;;;;;4164261;28;6990;-51
2021/12/11 04:38:14;;;;;;;;;;;;;;;;;;4164310;28;7006;-51
2021/12/11 04:40:37;;;;;;;;;;;;;;;;;;4164397;28;6974;-51
2021/12/11 04:43:03;;;;;;;;;;;;;;;;;;4164036;28;7011;-51
2021/12/11 04:45:28;;;;;;;;;;;;;;;;;;4164130;28;7002;-51
2021/12/11 04:47:55;;;;;;;;;;;;;;;;;;4164227;28;7006;-52
2021/12/11 04:50:23;;;;;;;;;;;;;;;;;;4164092;28;7010;-51
2021/12/11 04:52:54;;;;;;;;;;;;;;;;;;4164082;28;7041;-51
2021/12/11 04:55:28;;;;;;;;;;;;;;;;;;4164116;28;7006;-51
2021/12/11 04:58:21;;;;;;;;;;;;;;;;;;4164075;28;6995;-51
2021/12/11 05:00:55;;;;;;;;;;;;;;;;;;4163898;28;7009;-51
2021/12/11 05:06:18;;;;;;;;;;;;;;;;;;4164091;28;6994;-51
2021/12/11 05:11:31;;;;;;;;;;;;;;;;;;4163883;28;7167;-51
2021/12/11 05:13:53;;;;;;;;;;;;;;;;;;4163780;28;7143;-51
2021/12/11 05:16:15;;;;;;;;;;;;;;;;;;4164044;28;7006;-51
2021/12/11 05:18:36;;;;;;;;;;;;;;;;;;4163696;28;7035;-52
2021/12/11 05:20:59;;;;;;;;;;;;;;;;;;4166231;28;7042;-51
2021/12/11 05:23:20;;;;;;;;;;;;;;;;;;4166814;28;7010;-51
2021/12/11 05:25:43;;;;;;;;;;;;;;;;;;4166966;28;7034;-51
2021/12/11 05:28:05;;;;;;;;;;;;;;;;;;4167040;28;7077;-52
2021/12/11 05:30:27;;;;;;;;;;;;;;;;;;4166993;28;7128;-51
2021/12/11 05:32:48;;;;;;;;;;;;;;;;;;4166827;28;7505;-51
2021/12/11 05:35:09;;;;;;;;;;;;;;;;;;4166728;28;7055;-51
2021/12/11 05:37:31;;;;;;;;;;;;;;;;;;4166716;28;7003;-51
2021/12/11 05:39:52;;;;;;;;;;;;;;;;;;4166854;28;7165;-51
2021/12/11 05:42:15;;;;;;;;;;;;;;;;;;4166846;28;7019;-52
2021/12/11 05:44:36;;;;;;;;;;;;;;;;;;4166739;28;7030;-51
2021/12/11 05:46:58;;;;;;;;;;;;;;;;;;4166898;28;7156;-51
2021/12/11 05:49:19;;;;;;;;;;;;;;;;;;4166441;28;7019;-51
2021/12/11 05:51:41;;;;;;;;;;;;;;;;;;4166235;28;7109;-51
2021/12/11 05:54:02;;;;;;;;;;;;;;;;;;4166534;28;7149;-52
2021/12/11 05:56:24;;;;;;;;;;;;;;;;;;4166630;28;7002;-52
2021/12/11 05:58:56;;;;;;;;;;;;;;;;;;4166423;28;7057;-51
2021/12/11 06:01:19;;;;;;;;;;;;;;;;;;4166381;28;7007;-51
2021/12/11 06:03:40;;;;;;;;;;;;;;;;;;4166698;28;6998;-51
2021/12/11 06:06:01;;;;;;;;;;;;;;;;;;4166164;28;7015;-52
2021/12/11 06:08:23;;;;;;;;;;;;;;;;;;4166435;28;7011;-52
2021/12/11 06:10:45;;;;;;;;;;;;;;;;;;4166449;28;7121;-52
2021/12/11 06:13:06;;;;;;;;;;;;;;;;;;4166515;28;7077;-52
2021/12/11 06:15:29;;;;;;;;;;;;;;;;;;4166372;28;7057;-51
2021/12/11 06:17:50;;;;;;;;;;;;;;;;;;4166144;28;7073;-52
2021/12/11 06:20:12;;;;;;;;;;;;;;;;;;4165993;28;7010;-52
2021/12/11 06:22:34;;;;;;;;;;;;;;;;;;4166110;28;7002;-52
2021/12/11 06:24:56;;;;;;;;;;;;;;;;;;4165586;28;7030;-52
2021/12/11 06:27:17;;;;;;;;;;;;;;;;;;4166080;28;7015;-52
2021/12/11 06:29:39;;;;;;;;;;;;;;;;;;4166049;28;7006;-52
2021/12/11 06:32:02;;;;;;;;;;;;;;;;;;4164704;28;7063;-51
2021/12/11 06:34:24;;;;;;;;;;;;;;;;;;4165795;28;7168;-51
2021/12/11 06:36:45;;;;;;;;;;;;;;;;;;4165905;28;7003;-52
2021/12/11 06:39:07;;;;;;;;;;;;;;;;;;4165713;28;7110;-51
2021/12/11 06:41:29;;;;;;;;;;;;;;;;;;4165324;28;7030;-51
2021/12/11 06:43:50;;;;;;;;;;;;;;;;;;4165266;28;7148;-52
2021/12/11 06:46:11;;;;;;;;;;;;;;;;;;4165660;28;6987;-52
2021/12/11 06:48:34;;;;;;;;;;;;;;;;;;4165802;28;7038;-52
2021/12/11 06:50:55;;;;;;;;;;;;;;;;;;4165431;28;7186;-51
2021/12/11 06:53:18;;;;;;;;;;;;;;;;;;4165580;28;7046;-51
2021/12/11 06:55:39;;;;;;;;;;;;;;;;;;4165635;28;7041;-51
2021/12/11 06:58:00;;;;;;;;;;;;;;;;;;4165447;28;6986;-52
2021/12/11 07:00:22;;;;;;;;;;;;;;;;;;4165770;28;7049;-52
2021/12/11 07:02:43;;;;;;;;;;;;;;;;;;4165399;28;7008;-51
2021/12/11 07:05:07;;;;;;;;;;;;;;;;;;4165563;28;7406;-52
2021/12/11 07:07:33;;;;;;;;;;;;;;;;;;4165325;28;7022;-52
2021/12/11 07:09:54;;;;;;;;;;;;;;;;;;4165545;28;6958;-52
2021/12/11 07:12:15;;;;;;;;;;;;;;;;;;4165345;28;7010;-51
2021/12/11 07:14:37;;;;;;;;;;;;;;;;;;4165575;28;7053;-52
2021/12/11 07:16:58;;;;;;;;;;;;;;;;;;4165233;28;7006;-51
2021/12/11 07:19:19;;;;;;;;;;;;;;;;;;4165256;28;7221;-52
2021/12/11 07:21:42;;;;;;;;;;;;;;;;;;4165263;28;6986;-52
2021/12/11 07:24:04;;;;;;;;;;;;;;;;;;4165174;28;7050;-51
2021/12/11 07:26:31;;;;;;;;;;;;;;;;;;4165157;28;7014;-52
2021/12/11 07:28:52;;;;;;;;;;;;;;;;;;4165069;28;7022;-52
2021/12/11 07:31:13;;;;;;;;;;;;;;;;;;4164976;28;7182;-51
2021/12/11 07:33:35;;;;;;;;;;;;;;;;;;4165076;28;7149;-53
2021/12/11 07:35:56;;;;;;;;;;;;;;;;;;4164950;28;6994;-51
2021/12/11 07:38:19;;;;;;;;;;;;;;;;;;4165041;28;7006;-51
2021/12/11 07:40:41;;;;;;;;;;;;;;;;;;4164855;28;7483;-51
2021/12/11 07:43:03;;;;;;;;;;;;;;;;;;4164428;28;7164;-51
2021/12/11 07:45:24;;;;;;;;;;;;;;;;;;4164774;28;7053;-51
2021/12/11 07:47:46;;;;;;;;;;;;;;;;;;4164849;28;7010;-51
2021/12/11 07:50:07;;;;;;;;;;;;;;;;;;4164712;28;7463;-52
2021/12/11 07:52:28;;;;;;;;;;;;;;;;;;4164662;28;7069;-51
2021/12/11 07:54:51;;;;;;;;;;;;;;;;;;4164675;28;7165;-52
2021/12/11 07:57:12;;;;;;;;;;;;;;;;;;4164875;28;6997;-52
2021/12/11 07:59:34;;;;;;;;;;;;;;;;;;4164631;28;7085;-51
2021/12/11 08:01:55;;;;;;;;;;;;;;;;;;4164574;28;7010;-52
2021/12/11 08:04:16;;;;;;;;;;;;;;;;;;4164069;28;7258;-52
2021/12/11 08:06:38;;;;;;;;;;;;;;;;;;4164660;28;7165;-52
2021/12/11 08:08:59;;;;;;;;;;;;;;;;;;4164740;28;7049;-52
2021/12/11 08:11:22;;;;;;;;;;;;;;;;;;4164728;28;6974;-51
2021/12/11 08:13:43;;;;;;;;;;;;;;;;;;4164458;28;7030;-51
2021/12/11 08:16:05;;;;;;;;;;;;;;;;;;4164241;28;7175;-51
2021/12/11 08:18:27;;;;;;;;;;;;;;;;;;4164221;28;6998;-52
2021/12/11 08:20:48;;;;;;;;;;;;;;;;;;4163197;28;7011;-51
2021/12/11 08:23:09;;;;;;;;;;;;;;;;;;4163500;28;6998;-51
2021/12/11 08:25:31;;;;;;;;;;;;;;;;;;4148087;28;7015;-51
2021/12/11 08:27:54;;;;;;;;;;;;;;;;;;4147979;28;7069;-51
2021/12/11 08:30:16;;;;;;;;;;;;;;;;;;4148224;28;7081;-51
2021/12/11 08:32:37;;;;;;;;;;;;;;;;;;4148130;28;7445;-51
2021/12/11 08:34:58;;;;;;;;;;;;;;;;;;4147966;28;7378;-52
2021/12/11 08:37:21;;;;;;;;;;;;;;;;;;4147982;28;7002;-52
2021/12/11 08:39:42;;;;;;;;;;;;;;;;;;4148183;28;7455;-52
2021/12/11 08:42:04;;;;;;;;;;;;;;;;;;4148094;28;7112;-52
2021/12/11 08:44:28;;;;;;;;;;;;;;;;;;4147882;28;7249;-52
2021/12/11 08:46:49;;;;;;;;;;;;;;;;;;4160670;28;7026;-52
2021/12/11 08:49:12;;;;;;;;;;;;;;;;;;4148040;28;7010;-52
2021/12/11 08:51:34;;;;;;;;;;;;;;;;;;4147835;28;6990;-52
2021/12/11 08:53:56;;;;;;;;;;;;;;;;;;4148009;28;7554;-52
2021/12/11 08:56:17;;;;;;;;;;;;;;;;;;4150985;28;7055;-52
2021/12/11 08:58:39;;;;;;;;;;;;;;;;;;4151496;28;7026;-52
2021/12/11 09:01:05;;;;;;;;;;;;;;;;;;4151350;28;7009;-52
2021/12/11 09:03:27;;;;;;;;;;;;;;;;;;4166011;28;7771;-52
2021/12/11 09:05:49;;;;;;;;;;;;;;;;;;4151308;28;7105;-52
2021/12/11 09:08:12;;;;;;;;;;;;;;;;;;4151073;28;6999;-51
2021/12/11 09:10:35;;;;;;;;;;;;;;;;;;4151274;28;7018;-52
2021/12/11 09:12:58;;;;;;;;;;;;;;;;;;4151160;28;6982;-53
2021/12/11 09:15:20;;;;;;;;;;;;;;;;;;4150947;28;7005;-52
2021/12/11 09:17:44;;;;;;;;;;;;;;;;;;4157055;28;7403;-52
2021/12/11 09:20:08;;;;;;;;;;;;;;;;;;4176948;28;7127;-50
2021/12/11 09:22:29;;;;;;;;;;;;;;;;;;4167174;28;7010;-52
2021/12/11 09:24:51;;;;;;;;;;;;;;;;;;4166974;28;6986;-52
2021/12/11 09:27:15;;;;;;;;;;;;;;;;;;4166879;28;7106;-54
2021/12/11 09:29:37;;;;;;;;;;;;;;;;;;4166885;28;7046;-51
2021/12/11 09:32:02;;;;;;;;;;;;;;;;;;4166770;28;7407;-51
2021/12/11 09:34:27;;;;;;;;;;;;;;;;;;4166774;28;7108;-52
2021/12/11 09:36:48;;;;;;;;;;;;;;;;;;4166911;28;6990;-52
2021/12/11 09:39:11;;;;;;;;;;;;;;;;;;4166769;28;7006;-51
2021/12/11 09:41:33;;;;;;;;;;;;;;;;;;4166772;28;6986;-51
2021/12/11 09:43:57;;;;;;;;;;;;;;;;;;4166652;28;7045;-51
2021/12/11 09:46:20;;;;;;;;;;;;;;;;;;4166468;28;7053;-51
2021/12/11 09:48:41;;;;;;;;;;;;;;;;;;4166364;28;7057;-51
2021/12/11 09:51:04;;;;;;;;;;;;;;;;;;4166486;28;7058;-51
2021/12/11 09:53:28;;;;;;;;;;;;;;;;;;4166579;28;7026;-51
2021/12/11 09:55:49;;;;;;;;;;;;;;;;;;4166615;28;6982;-52
2021/12/11 09:58:11;;;;;;;;;;;;;;;;;;4166709;28;7033;-51
2021/12/11 10:00:34;;;;;;;;;;;;;;;;;;4166510;28;7032;-51
2021/12/11 10:02:56;;;;;;;;;;;;;;;;;;4166497;28;7143;-51
2021/12/11 10:05:29;;;;;;;;;;;;;;;;;;4166285;28;7011;-51
2021/12/11 10:08:03;;;;;;;;;;;;;;;;;;4166289;28;7162;-51
2021/12/11 10:10:24;;;;;;;;;;;;;;;;;;4166266;28;7166;-52
2021/12/11 10:12:46;;;;;;;;;;;;;;;;;;4166264;28;7149;-52
2021/12/11 10:15:09;;;;;;;;;;;;;;;;;;4160951;28;7038;-52
2021/12/11 10:17:36;;;;;;;;;;;;;;;;;;4150629;28;7481;-51
2021/12/11 10:19:58;;;;;;;;;;;;;;;;;;4165228;28;7043;-52
2021/12/11 10:22:20;;;;;;;;;;;;;;;;;;4165184;28;7438;-52
2021/12/11 10:24:42;;;;;;;;;;;;;;;;;;4165756;28;7163;-53
2021/12/11 10:27:04;;;;;;;;;;;;;;;;;;4165132;28;7035;-52
2021/12/11 10:29:25;;;;;;;;;;;;;;;;;;4159684;28;7254;-52
2021/12/11 10:31:47;;;;;;;;;;;;;;;;;;4150030;28;7018;-52
2021/12/11 10:34:11;;;;;;;;;;;;;;;;;;4163303;28;7006;-51
2021/12/11 10:36:34;;;;;;;;;;;;;;;;;;4178434;28;7002;-52
2021/12/11 10:38:55;;;;;;;;;;;;;;;;;;4181503;28;7163;-52
2021/12/11 10:41:17;;;;;;;;;;;;;;;;;;4181634;28;7006;-52
2021/12/11 10:43:42;;;;;;;;;;;;;;;;;;4173601;28;7068;-52
2021/12/11 10:46:04;;;;;;;;;;;;;;;;;;4148817;28;7153;-52
2021/12/11 10:48:27;;;;;;;;;;;;;;;;;;4149095;28;7019;-52
2021/12/11 10:50:50;;;;;;;;;;;;;;;;;;4149067;28;7402;-53
2021/12/11 10:53:13;;;;;;;;;;;;;;;;;;4149030;28;7019;-52
2021/12/11 10:55:35;;;;;;;;;;;;;;;;;;4148773;28;7006;-52
2021/12/11 10:57:57;;;;;;;;;;;;;;;;;;4148911;28;7010;-52
2021/12/11 11:00:23;;;;;;;;;;;;;;;;;;4148851;28;7002;-52
2021/12/11 11:02:44;;;;;;;;;;;;;;;;;;4148583;28;7026;-52
2021/12/11 11:05:07;;;;;;;;;;;;;;;;;;4148950;28;7046;-51
2021/12/11 11:07:30;;;;;;;;;;;;;;;;;;4148605;28;7172;-52
2021/12/11 11:09:52;;;;;;;;;;;;;;;;;;4162659;28;6987;-51
2021/12/11 11:12:14;;;;;;;;;;;;;;;;;;4164871;28;7403;-52
2021/12/11 11:14:35;;;;;;;;;;;;;;;;;;4164559;28;7019;-52
2021/12/11 11:16:57;;;;;;;;;;;;;;;;;;4165108;28;7015;-51
2021/12/11 11:19:19;;;;;;;;;;;;;;;;;;4164618;28;7059;-52
2021/12/11 11:21:41;;;;;;;;;;;;;;;;;;4165064;28;6982;-52
2021/12/11 11:24:04;;;;;;;;;;;;;;;;;;4164721;28;7201;-52
2021/12/11 11:26:26;;;;;;;;;;;;;;;;;;4165059;28;7183;-52
2021/12/11 11:28:48;;;;;;;;;;;;;;;;;;4161773;28;7018;-52
2021/12/11 11:31:10;;;;;;;;;;;;;;;;;;4149844;28;7017;-51
2021/12/11 11:33:32;;;;;;;;;;;;;;;;;;4155656;28;6986;-52
2021/12/11 11:35:53;;;;;;;;;;;;;;;;;;4164352;28;7029;-52
2021/12/11 11:38:16;;;;;;;;;;;;;;;;;;4164347;28;7025;-52
2021/12/11 11:40:39;;;;;;;;;;;;;;;;;;4164603;28;6998;-52
2021/12/11 11:43:00;;;;;;;;;;;;;;;;;;4164067;28;7165;-52
2021/12/11 11:45:21;;;;;;;;;;;;;;;;;;4147772;28;7006;-52
2021/12/11 11:47:43;;;;;;;;;;;;;;;;;;4146262;28;7010;-52
2021/12/11 11:50:04;;;;;;;;;;;;;;;;;;4146212;28;7164;-52
2021/12/11 11:52:27;;;;;;;;;;;;;;;;;;4146306;28;7006;-52
2021/12/11 11:54:49;;;;;;;;;;;;;;;;;;4144184;28;7042;-52
2021/12/11 11:57:13;;;;;;;;;;;;;;;;;;4147991;28;7282;-52
2021/12/11 11:59:35;;;;;;;;;;;;;;;;;;4150458;28;7019;-52
2021/12/11 12:01:57;;;;;;;;;;;;;;;;;;4145972;28;7012;-52
2021/12/11 12:04:19;;;;;;;;;;;;;;;;;;4156968;28;7077;-52
2021/12/11 12:06:40;;;;;;;;;;;;;;;;;;4162751;28;7144;-52
2021/12/11 12:09:05;;;;;;;;;;;;;;;;;;4161774;28;7057;-52
2021/12/11 12:11:31;;;;;;;;;;;;;;;;;;4160574;28;6993;-52
2021/12/11 12:13:54;;;;;;;;;;;;;;;;;;4159727;28;7179;-52
2021/12/11 12:16:15;;;;;;;;;;;;;;;;;;4162534;28;7002;-52
2021/12/11 12:18:41;;;;;;;;;;;;;;;;;;4162193;28;7064;-52
2021/12/11 12:21:03;;;;;;;;;;;;;;;;;;4161962;28;7011;-52
2021/12/11 12:23:25;;;;;;;;;;;;;;;;;;4162312;28;7497;-51
2021/12/11 12:25:46;;;;;;;;;;;;;;;;;;4162325;28;7108;-52
2021/12/11 12:28:07;;;;;;;;;;;;;;;;;;4162476;28;7003;-53
2021/12/11 12:30:32;;;;;;;;;;;;;;;;;;4145747;28;7022;-52
2021/12/11 12:32:55;;;;;;;;;;;;;;;;;;4145721;28;7006;-52
2021/12/11 12:35:17;;;;;;;;;;;;;;;;;;4144707;28;7047;-51
2021/12/11 12:37:38;;;;;;;;;;;;;;;;;;4146306;28;6994;-52
2021/12/11 12:40:00;;;;;;;;;;;;;;;;;;4146213;28;7019;-52
2021/12/11 12:42:27;;;;;;;;;;;;;;;;;;4145846;28;7037;-52
2021/12/11 12:44:49;;;;;;;;;;;;;;;;;;4159228;28;7526;-52
2021/12/11 12:47:13;;;;;;;;;;;;;;;;;;4161867;28;7019;-52
2021/12/11 12:49:35;;;;;;;;;;;;;;;;;;4162256;28;7072;-52
2021/12/11 12:51:57;;;;;;;;;;;;;;;;;;4162152;28;7002;-52
2021/12/11 12:54:20;;;;;;;;;;;;;;;;;;4160474;28;7003;-52
2021/12/11 12:56:42;;;;;;;;;;;;;;;;;;4162253;28;7009;-52
2021/12/11 12:59:04;;;;;;;;;;;;;;;;;;4154145;28;7066;-52
2021/12/11 13:01:27;;;;;;;;;;;;;;;;;;4154892;28;7002;-52
2021/12/11 13:03:49;;;;;;;;;;;;;;;;;;4162247;28;7006;-52
2021/12/11 13:06:11;;;;;;;;;;;;;;;;;;4162249;28;7038;-52
2021/12/11 13:08:35;;;;;;;;;;;;;;;;;;4161034;28;7250;-53
2021/12/11 13:10:57;;;;;;;;;;;;;;;;;;4160329;28;7026;-51
2021/12/11 13:13:19;;;;;;;;;;;;;;;;;;4161640;28;7168;-51
2021/12/11 13:15:43;;;;;;;;;;;;;;;;;;4161941;28;7046;-51
2021/12/11 13:18:05;;;;;;;;;;;;;;;;;;4161919;28;7030;-52
2021/12/11 13:20:29;;;;;;;;;;;;;;;;;;4162014;28;7055;-51
2021/12/11 13:22:50;;;;;;;;;;;;;;;;;;4161142;28;7097;-52
2021/12/11 13:25:14;;;;;;;;;;;;;;;;;;4161480;28;7010;-51
2021/12/11 13:27:35;;;;;;;;;;;;;;;;;;4163077;28;7015;-52
2021/12/11 13:29:59;;;;;;;;;;;;;;;;;;4146871;28;7446;-51
2021/12/11 13:32:21;;;;;;;;;;;;;;;;;;4147202;28;7121;-51
2021/12/11 13:34:43;;;;;;;;;;;;;;;;;;4156301;28;7493;-52
2021/12/11 13:37:08;;;;;;;;;;;;;;;;;;4161644;28;7194;-51
2021/12/11 13:39:29;;;;;;;;;;;;;;;;;;4146106;28;7148;-51
2021/12/11 13:41:59;;;;;;;;;;;;;;;;;;4148559;28;7437;-53
2021/12/11 13:44:21;;;;;;;;;;;;;;;;;;4149722;28;6991;-52
2021/12/11 13:46:42;;;;;;;;;;;;;;;;;;4162088;28;7014;-53
2021/12/11 13:49:03;;;;;;;;;;;;;;;;;;4165134;28;7018;-53
2021/12/11 13:51:25;;;;;;;;;;;;;;;;;;4165830;28;7053;-53
2021/12/11 13:53:48;;;;;;;;;;;;;;;;;;4166108;28;7006;-53
2021/12/11 13:56:10;;;;;;;;;;;;;;;;;;4165564;28;7038;-53
2021/12/11 13:58:32;;;;;;;;;;;;;;;;;;4162672;28;7162;-53
2021/12/11 14:00:53;;;;;;;;;;;;;;;;;;4158040;28;7014;-54
2021/12/11 14:03:15;;;;;;;;;;;;;;;;;;4165894;28;7011;-54
2021/12/11 14:05:37;;;;;;;;;;;;;;;;;;4165750;28;7002;-53
2021/12/11 14:07:59;;;;;;;;;;;;;;;;;;4165589;28;6970;-54
2021/12/11 14:10:27;;;;;;;;;;;;;;;;;;4149621;28;7002;-53
2021/12/11 14:12:49;;;;;;;;;;;;;;;;;;4159430;28;7162;-53
2021/12/11 14:15:11;;;;;;;;;;;;;;;;;;4149413;28;7026;-53
2021/12/11 14:17:32;;;;;;;;;;;;;;;;;;4149404;28;7026;-53
2021/12/11 14:19:53;;;;;;;;;;;;;;;;;;4149386;28;7069;-54
2021/12/11 14:22:15;;;;;;;;;;;;;;;;;;4149417;28;7035;-53
2021/12/11 14:24:36;;;;;;;;;;;;;;;;;;4149230;28;7368;-53
2021/12/11 14:27:02;;;;;;;;;;;;;;;;;;4149021;28;7129;-53
2021/12/11 14:29:23;;;;;;;;;;;;;;;;;;4155083;28;7006;-54
2021/12/11 14:31:46;;;;;;;;;;;;;;;;;;4149086;28;7015;-53
2021/12/11 14:34:08;;;;;;;;;;;;;;;;;;4149281;28;7003;-50
2021/12/11 14:36:30;;;;;;;;;;;;;;;;;;4155733;28;7015;-50
2021/12/11 14:38:51;;;;;;;;;;;;;;;;;;4165244;28;7045;-50
2021/12/11 14:41:13;;;;;;;;;;;;;;;;;;4165798;28;7006;-51
2021/12/11 14:43:36;;;;;;;;;;;;;;;;;;4165020;28;7205;-50
2021/12/11 14:45:58;;;;;;;;;;;;;;;;;;4165609;28;7407;-50
2021/12/11 14:48:19;;;;;;;;;;;;;;;;;;4165397;28;7108;-51
2021/12/11 14:50:41;;;;;;;;;;;;;;;;;;4151107;28;7014;-51
2021/12/11 14:53:03;;;;;;;;;;;;;;;;;;4146771;28;6970;-50
2021/12/11 14:55:25;;;;;;;;;;;;;;;;;;4148930;28;7167;-50
2021/12/11 14:57:46;;;;;;;;;;;;;;;;;;4148650;28;7047;-50
2021/12/11 15:00:11;;;;;;;;;;;;;;;;;;4148647;28;7045;-51
2021/12/11 15:02:34;;;;;;;;;;;;;;;;;;4148765;28;7002;-50
2021/12/11 15:04:55;;;;;;;;;;;;;;;;;;4149081;28;7057;-50
2021/12/11 15:07:17;;;;;;;;;;;;;;;;;;4148219;28;7051;-51
2021/12/11 15:09:38;;;;;;;;;;;;;;;;;;4160771;28;7006;-53
2021/12/11 15:12:00;;;;;;;;;;;;;;;;;;4151269;28;7035;-50
2021/12/11 15:14:21;;;;;;;;;;;;;;;;;;4148255;28;7162;-51
2021/12/11 15:16:45;;;;;;;;;;;;;;;;;;4148481;28;7027;-50
2021/12/11 15:19:09;;;;;;;;;;;;;;;;;;4148923;28;6974;-51
2021/12/11 15:21:30;;;;;;;;;;;;;;;;;;4148525;28;7002;-52
2021/12/11 15:23:57;;;;;;;;;;;;;;;;;;4147416;28;6994;-51
2021/12/11 15:26:19;;;;;;;;;;;;;;;;;;4148582;28;7080;-51
2021/12/11 15:28:40;;;;;;;;;;;;;;;;;;4152433;28;7006;-50
2021/12/11 15:31:03;;;;;;;;;;;;;;;;;;4164812;28;7112;-51
2021/12/11 15:33:26;;;;;;;;;;;;;;;;;;4164899;28;6991;-51
2021/12/11 15:35:48;;;;;;;;;;;;;;;;;;4164548;28;7033;-51
2021/12/11 15:38:10;;;;;;;;;;;;;;;;;;4164570;28;7163;-51
2021/12/11 15:40:31;;;;;;;;;;;;;;;;;;4164538;28;7403;-51
2021/12/11 15:42:52;;;;;;;;;;;;;;;;;;4164712;28;7033;-52
2021/12/11 15:45:14;;;;;;;;;;;;;;;;;;4161967;28;7172;-51
2021/12/11 15:47:35;;;;;;;;;;;;;;;;;;4146952;28;7197;-51
2021/12/11 15:50:01;;;;;;;;;;;;;;;;;;4147792;28;7092;-52
2021/12/11 15:52:24;;;;;;;;;;;;;;;;;;4147802;28;7147;-51
2021/12/11 15:54:45;;;;;;;;;;;;;;;;;;4148113;28;7382;-52
2021/12/11 15:57:07;;;;;;;;;;;;;;;;;;4148001;28;7143;-51
2021/12/11 15:59:29;;;;;;;;;;;;;;;;;;4151323;28;7002;-51
2021/12/11 16:01:51;;;;;;;;;;;;;;;;;;4147359;28;7006;-54
2021/12/11 16:04:12;;;;;;;;;;;;;;;;;;4147152;28;7041;-53
2021/12/11 16:06:37;;;;;;;;;;;;;;;;;;4147693;28;7688;-53
2021/12/11 16:08:58;;;;;;;;;;;;;;;;;;4154338;28;7006;-53
2021/12/11 16:11:20;;;;;;;;;;;;;;;;;;4162343;28;7006;-52
2021/12/11 16:13:41;;;;;;;;;;;;;;;;;;4163537;28;7006;-52
2021/12/11 16:16:02;;;;;;;;;;;;;;;;;;4163996;28;7003;-52
2021/12/11 16:18:24;;;;;;;;;;;;;;;;;;4164027;28;7173;-53
2021/12/11 16:20:47;;;;;;;;;;;;;;;;;;4164123;28;6988;-53
2021/12/11 16:23:09;;;;;;;;;;;;;;;;;;4164228;28;7112;-53
2021/12/11 16:25:31;;;;;;;;;;;;;;;;;;4163733;28;7045;-53
2021/12/11 16:27:56;;;;;;;;;;;;;;;;;;4163850;28;8047;-53
2021/12/11 16:30:18;;;;;;;;;;;;;;;;;;4147292;28;7011;-53
2021/12/11 16:32:39;;;;;;;;;;;;;;;;;;4146225;28;7207;-52
2021/12/11 16:35:01;;;;;;;;;;;;;;;;;;4147542;28;7088;-53
2021/12/11 16:37:31;;;;;;;;;;;;;;;;;;4147458;28;7065;-53
2021/12/11 16:39:52;;;;;;;;;;;;;;;;;;4144939;28;7022;-53